createdAt,value
2023-01-13T00:00:27.679Z,1.83
2023-01-13T00:02:55.136Z,2.43
2023-01-13T00:05:22.432Z,5.13
2023-01-13T00:07:50.206Z,1.53
2023-01-13T00:10:17.733Z,1.70
2023-01-13T00:12:45.018Z,2.30
2023-01-13T00:15:13.378Z,2.30
2023-01-13T00:17:40.732Z,6.27
2023-01-13T00:20:09.880Z,1.37
2023-01-13T00:22:37.769Z,1.33
2023-01-13T00:25:06.643Z,3.17
2023-01-13T00:27:34.691Z,2.90
2023-01-13T00:30:02.296Z,5.43
2023-01-13T00:32:29.924Z,4.27
2023-01-13T00:34:58.883Z,2.97
2023-01-13T00:37:26.908Z,2.13
2023-01-13T00:39:54.511Z,1.80
2023-01-13T00:42:40.559Z,3.53
2023-01-13T00:45:08.136Z,4.90
2023-01-13T00:47:35.480Z,4.07
2023-01-13T00:50:03.914Z,3.90
2023-01-13T00:52:32.936Z,8.03
2023-01-13T00:55:00.958Z,1.93
2023-01-13T00:57:28.304Z,3.80
2023-01-13T00:59:56.041Z,4.90
2023-01-13T01:02:24.119Z,3.00
2023-01-13T01:04:52.094Z,4.10
2023-01-13T01:07:19.724Z,2.40
2023-01-13T01:09:47.027Z,5.27
2023-01-13T01:12:14.344Z,2.00
2023-01-13T01:14:41.649Z,3.37
2023-01-13T01:17:09.320Z,3.30
2023-01-13T01:19:38.754Z,4.77
2023-01-13T01:22:06.417Z,6.37
2023-01-13T01:24:33.705Z,6.03
2023-01-13T01:27:00.990Z,4.20
2023-01-13T01:29:28.314Z,3.33
2023-01-13T01:31:58.817Z,6.93
2023-01-13T01:34:26.772Z,4.40
2023-01-13T01:36:54.664Z,3.23
2023-01-13T01:39:22.011Z,4.03
2023-01-13T01:42:07.989Z,6.80
2023-01-13T01:45:13.685Z,6.33
2023-01-13T01:47:42.153Z,3.43
2023-01-13T01:50:10.868Z,3.63
2023-01-13T01:52:43.882Z,3.73
2023-01-13T01:55:21.716Z,7.17
2023-01-13T01:57:55.382Z,4.40
2023-01-13T02:00:23.292Z,3.53
2023-01-13T02:02:52.067Z,5.77
2023-01-13T02:05:19.725Z,4.03
2023-01-13T02:07:49.620Z,7.93
2023-01-13T02:10:21.940Z,9.67
2023-01-13T02:12:50.619Z,6.77
2023-01-13T02:15:30.280Z,5.23
2023-01-13T02:18:01.161Z,6.77
2023-01-13T02:20:44.902Z,9.27
2023-01-13T02:24:09.170Z,7.60
2023-01-13T02:27:11.335Z,10.57
2023-01-13T02:30:18.969Z,8.60
2023-01-13T02:32:55.360Z,5.40
2023-01-13T02:35:40.581Z,5.73
2023-01-13T02:38:10.935Z,6.13
2023-01-13T02:40:48.900Z,8.67
2023-01-13T02:43:48.604Z,5.03
2023-01-13T02:46:23.794Z,5.83
2023-01-13T02:48:54.149Z,6.67
2023-01-13T02:51:26.827Z,7.23
2023-01-13T02:54:00.940Z,7.70
2023-01-13T02:56:30.021Z,6.17
2023-01-13T02:58:59.411Z,6.43
2023-01-13T03:01:26.993Z,6.93
2023-01-13T03:03:54.178Z,5.40
2023-01-13T03:06:51.627Z,4.97
2023-01-13T03:09:44.982Z,6.20
2023-01-13T03:12:34.052Z,4.90
2023-01-13T03:15:28.340Z,11.67
2023-01-13T03:18:08.325Z,9.97
2023-01-13T03:20:42.419Z,8.50
2023-01-13T03:23:19.243Z,11.50
2023-01-13T03:26:10.245Z,7.70
2023-01-13T03:28:44.644Z,8.10
2023-01-13T03:31:17.400Z,9.97
2023-01-13T03:34:01.765Z,9.53
2023-01-13T03:36:30.683Z,14.63
2023-01-13T03:39:03.687Z,6.97
2023-01-13T03:41:37.910Z,11.90
2023-01-13T03:44:23.169Z,12.67
2023-01-13T03:46:59.351Z,10.80
2023-01-13T03:49:57.929Z,6.73
2023-01-13T03:52:31.626Z,7.17
2023-01-13T03:55:07.714Z,9.80
2023-01-13T03:57:50.792Z,8.50
2023-01-13T04:00:21.480Z,9.77
2023-01-13T04:02:55.034Z,11.17
2023-01-13T04:05:23.128Z,8.53
2023-01-13T04:08:00.849Z,14.87
2023-01-13T04:10:39.511Z,14.83
2023-01-13T04:13:14.205Z,13.03
2023-01-13T04:15:44.976Z,8.53
2023-01-13T04:18:21.367Z,10.70
2023-01-13T04:20:51.451Z,13.43
2023-01-13T04:23:20.493Z,7.73
2023-01-13T04:25:48.599Z,14.80
2023-01-13T04:28:17.135Z,10.40
2023-01-13T04:30:45.029Z,7.50
2023-01-13T04:33:13.735Z,9.00
2023-01-13T04:35:41.034Z,11.47
2023-01-13T04:38:11.454Z,9.83
2023-01-13T04:40:39.685Z,16.47
2023-01-13T04:43:07.196Z,8.10
2023-01-13T04:45:34.857Z,16.63
2023-01-13T04:48:02.343Z,8.10
2023-01-13T04:50:29.680Z,7.60
2023-01-13T04:52:57.046Z,6.23
2023-01-13T04:55:25.070Z,15.70
2023-01-13T04:57:52.831Z,11.90
2023-01-13T05:00:22.919Z,13.63
2023-01-13T05:02:51.221Z,7.80
2023-01-13T05:05:19.429Z,14.33
2023-01-13T05:07:46.625Z,18.07
2023-01-13T05:10:14.290Z,11.03
2023-01-13T05:13:00.167Z,7.93
2023-01-13T05:15:45.959Z,15.97
2023-01-13T05:18:13.366Z,8.80
2023-01-13T05:20:40.595Z,10.70
2023-01-13T05:23:26.621Z,9.60
2023-01-13T05:25:53.912Z,10.93
2023-01-13T05:28:21.195Z,11.40
2023-01-13T05:30:49.496Z,10.87
2023-01-13T05:33:20.214Z,9.20
2023-01-13T05:35:48.546Z,9.30
2023-01-13T05:38:17.434Z,9.20
2023-01-13T05:41:03.745Z,16.83
2023-01-13T05:43:32.912Z,11.57
2023-01-13T05:46:00.266Z,10.63
2023-01-13T05:48:53.563Z,13.00
2023-01-13T05:51:26.170Z,7.33
2023-01-13T05:53:53.593Z,8.87
2023-01-13T05:56:20.913Z,11.40
2023-01-13T05:58:48.202Z,10.90
2023-01-13T06:01:16.373Z,13.98
2023-01-13T06:03:43.805Z,5.80
2023-01-13T06:06:11.072Z,11.90
2023-01-13T06:08:39.841Z,9.07
2023-01-13T06:11:07.648Z,13.20
2023-01-13T06:13:35.587Z,14.90
2023-01-13T06:16:03.032Z,13.15
2023-01-13T06:18:30.427Z,13.23
2023-01-13T06:21:04.827Z,12.97
2023-01-13T06:23:35.221Z,13.53
2023-01-13T06:26:12.789Z,10.83
2023-01-13T06:28:40.151Z,11.30
2023-01-13T06:31:09.947Z,7.40
2023-01-13T06:33:40.916Z,10.77
2023-01-13T06:36:15.288Z,13.93
2023-01-13T06:38:46.156Z,7.10
2023-01-13T06:41:14.257Z,12.93
2023-01-13T06:43:41.718Z,8.63
2023-01-13T06:46:09.632Z,12.43
2023-01-13T06:48:36.859Z,13.50
2023-01-13T06:51:04.992Z,10.63
2023-01-13T06:53:32.261Z,11.10
2023-01-13T06:55:59.490Z,15.73
2023-01-13T06:58:26.866Z,11.70
2023-01-13T07:00:54.801Z,16.90
2023-01-13T07:03:22.139Z,12.03
2023-01-13T07:05:54.416Z,6.43
2023-01-13T07:08:22.991Z,15.77
2023-01-13T07:10:51.302Z,15.63
2023-01-13T07:13:37.900Z,9.60
2023-01-13T07:16:07.452Z,7.60
2023-01-13T07:18:35.893Z,7.63
2023-01-13T07:21:11.907Z,11.80
2023-01-13T07:23:41.171Z,11.60
2023-01-13T07:26:10.077Z,11.82
2023-01-13T07:28:38.490Z,14.53
2023-01-13T07:31:06.496Z,12.65
2023-01-13T07:33:33.663Z,13.18
2023-01-13T07:36:03.682Z,8.60
2023-01-13T07:38:32.068Z,10.77
2023-01-13T07:41:19.812Z,7.40
2023-01-13T07:43:47.507Z,6.40
2023-01-13T07:46:15.172Z,8.30
2023-01-13T07:48:42.491Z,12.67
2023-01-13T07:51:11.533Z,14.83
2023-01-13T07:53:39.350Z,13.87
2023-01-13T07:56:08.022Z,9.47
2023-01-13T07:58:36.184Z,10.80
2023-01-13T08:01:12.268Z,14.90
2023-01-13T08:03:40.592Z,12.00
2023-01-13T08:06:09.453Z,7.63
2023-01-13T08:08:37.443Z,10.20
2023-01-13T08:11:09.545Z,6.27
2023-01-13T08:13:37.157Z,16.60
2023-01-13T08:16:07.601Z,8.87
2023-01-13T08:18:36.278Z,8.30
2023-01-13T08:21:13.111Z,7.90
2023-01-13T08:23:42.069Z,12.20
2023-01-13T08:26:15.887Z,9.33
2023-01-13T08:28:44.130Z,10.83
2023-01-13T08:31:14.093Z,8.50
2023-01-13T08:33:42.268Z,7.50
2023-01-13T08:36:12.439Z,11.93
2023-01-13T08:38:40.986Z,11.87
2023-01-13T08:41:10.269Z,4.43
2023-01-13T08:43:37.626Z,13.13
2023-01-13T08:46:05.542Z,13.57
2023-01-13T08:48:32.920Z,9.27
2023-01-13T08:51:08.699Z,10.40
2023-01-13T08:53:36.157Z,8.13
2023-01-13T08:56:10.760Z,15.30
2023-01-13T08:58:38.233Z,10.13
2023-01-13T09:01:07.484Z,5.40
2023-01-13T09:03:34.932Z,12.60
2023-01-13T09:06:02.359Z,10.00
2023-01-13T09:08:29.824Z,7.63
2023-01-13T09:10:57.570Z,8.27
2023-01-13T09:13:24.877Z,11.50
2023-01-13T09:15:56.272Z,5.67
2023-01-13T09:18:23.857Z,6.90
2023-01-13T09:20:51.695Z,9.87
2023-01-13T09:23:18.952Z,11.50
2023-01-13T09:25:46.249Z,5.93
2023-01-13T09:28:14.526Z,8.10
2023-01-13T09:30:41.797Z,6.23
2023-01-13T09:33:27.703Z,6.63
2023-01-13T09:35:59.539Z,6.60
2023-01-13T09:38:27.564Z,5.30
2023-01-13T09:40:55.487Z,6.33
2023-01-13T09:43:53.060Z,8.10
2023-01-13T09:46:47.129Z,6.17
2023-01-13T09:49:38.493Z,7.03
2023-01-13T09:52:15.262Z,10.17
2023-01-13T09:55:00.341Z,6.50
2023-01-13T09:57:29.880Z,6.13
2023-01-13T09:59:58.632Z,8.90
2023-01-13T10:02:57.724Z,6.70
2023-01-13T10:05:38.179Z,7.27
2023-01-13T10:08:13.355Z,7.20
2023-01-13T10:10:45.220Z,4.27
2023-01-13T10:13:28.148Z,7.30
2023-01-13T10:16:02.853Z,6.10
2023-01-13T10:18:36.787Z,6.43
2023-01-13T10:21:19.034Z,3.47
2023-01-13T10:24:03.762Z,5.63
2023-01-13T10:26:45.133Z,4.87
2023-01-13T10:29:21.965Z,4.70
2023-01-13T10:31:49.567Z,3.23
2023-01-13T10:34:17.520Z,6.20
2023-01-13T10:37:02.974Z,7.40
2023-01-13T10:39:42.982Z,8.47
2023-01-13T10:42:21.863Z,8.80
2023-01-13T10:44:49.112Z,7.47
2023-01-13T10:47:34.385Z,6.03
2023-01-13T10:50:13.936Z,13.77
2023-01-13T10:53:03.203Z,7.87
2023-01-13T10:55:37.133Z,4.50
2023-01-13T10:58:19.335Z,8.47
2023-01-13T11:00:48.876Z,8.10
2023-01-13T11:03:22.433Z,10.73
2023-01-13T11:05:53.901Z,3.03
2023-01-13T11:08:27.733Z,10.67
2023-01-13T11:10:57.588Z,9.73
2023-01-13T11:13:35.544Z,6.55
2023-01-13T11:16:14.771Z,7.60
2023-01-13T11:19:11.714Z,4.97
2023-01-13T11:21:55.931Z,5.67
2023-01-13T11:24:29.421Z,7.30
2023-01-13T11:27:01.958Z,7.00
2023-01-13T11:29:38.053Z,4.40
2023-01-13T11:32:12.847Z,3.10
2023-01-13T11:34:42.680Z,6.40
2023-01-13T11:37:19.152Z,3.67
2023-01-13T11:40:03.632Z,3.20
2023-01-13T11:42:49.521Z,3.90
2023-01-13T11:45:38.654Z,5.80
2023-01-13T11:48:06.037Z,3.93
2023-01-13T11:51:04.444Z,5.83
2023-01-13T11:53:59.228Z,6.77
2023-01-13T11:57:12.778Z,2.70
2023-01-13T12:00:10.745Z,8.50
2023-01-13T12:03:15.025Z,7.20
2023-01-13T12:06:02.981Z,4.63
2023-01-13T12:08:55.311Z,4.95
2023-01-13T12:12:02.473Z,4.27
2023-01-13T12:15:02.980Z,8.13
2023-01-13T12:18:06.343Z,4.50
2023-01-13T12:20:43.677Z,4.80
2023-01-13T12:23:23.249Z,7.87
2023-01-13T12:25:54.422Z,4.80
2023-01-13T12:28:49.102Z,4.17
2023-01-13T12:31:19.125Z,4.37
2023-01-13T12:33:58.782Z,4.20
2023-01-13T12:36:55.203Z,5.53
2023-01-13T12:39:33.158Z,5.67
2023-01-13T12:42:45.369Z,6.13
2023-01-13T12:45:12.538Z,5.00
2023-01-13T12:47:41.291Z,8.20
2023-01-13T12:50:24.676Z,10.95
2023-01-13T12:52:57.110Z,6.03
2023-01-13T12:55:30.921Z,5.00
2023-01-13T12:58:14.330Z,7.20
2023-01-13T13:00:41.565Z,3.27
2023-01-13T13:03:14.648Z,6.57
2023-01-13T13:05:54.132Z,6.60
2023-01-13T13:08:50.359Z,5.63
2023-01-13T13:11:56.715Z,5.33
2023-01-13T13:14:39.431Z,4.70
2023-01-13T13:17:28.656Z,5.20
2023-01-13T13:19:58.306Z,3.30
2023-01-13T13:22:28.554Z,7.23
2023-01-13T13:24:55.835Z,5.93
2023-01-13T13:27:49.851Z,3.60
2023-01-13T13:30:39.217Z,8.20
2023-01-13T13:33:20.918Z,5.13
2023-01-13T13:36:16.801Z,6.03
2023-01-13T13:39:40.343Z,5.40
2023-01-13T13:42:38.402Z,6.93
2023-01-13T13:45:39.993Z,6.10
2023-01-13T13:48:25.998Z,3.73
2023-01-13T13:50:58.385Z,11.13
2023-01-13T13:53:33.651Z,5.13
2023-01-13T13:56:02.877Z,9.70
2023-01-13T13:58:35.521Z,4.87
2023-01-13T14:01:04.991Z,3.87
2023-01-13T14:03:38.297Z,8.07
2023-01-13T14:06:07.807Z,10.20
2023-01-13T14:08:37.897Z,4.10
2023-01-13T14:11:28.746Z,6.30
2023-01-13T14:14:07.122Z,10.27
2023-01-13T14:16:36.271Z,6.00
2023-01-13T14:19:04.491Z,14.73
2023-01-13T14:21:32.104Z,5.53
2023-01-13T14:24:16.420Z,9.00
2023-01-13T14:26:44.312Z,4.50
2023-01-13T14:29:18.211Z,6.17
2023-01-13T14:31:46.917Z,1.97
2023-01-13T14:34:31.858Z,7.70
2023-01-13T14:37:01.116Z,4.53
2023-01-13T14:39:39.522Z,6.00
2023-01-13T14:42:13.304Z,5.93
2023-01-13T14:44:45.694Z,5.20
2023-01-13T14:47:23.480Z,5.73
2023-01-13T14:50:10.389Z,4.63
2023-01-13T14:52:48.018Z,6.27
2023-01-13T14:55:28.111Z,8.40
2023-01-13T14:58:20.172Z,3.60
2023-01-13T15:00:48.298Z,5.20
2023-01-13T15:03:17.941Z,6.10
2023-01-13T15:05:51.183Z,7.10
2023-01-13T15:08:28.334Z,10.17
2023-01-13T15:11:00.906Z,7.90
2023-01-13T15:13:38.261Z,10.70
2023-01-13T15:16:15.310Z,7.50
2023-01-13T15:18:42.915Z,7.60
2023-01-13T15:21:10.324Z,10.63
2023-01-13T15:23:39.866Z,7.67
2023-01-13T15:26:24.694Z,8.80
2023-01-13T15:28:53.715Z,11.07
2023-01-13T15:31:23.372Z,7.07
2023-01-13T15:33:50.618Z,7.30
2023-01-13T15:36:30.865Z,6.23
2023-01-13T15:38:59.839Z,3.90
2023-01-13T15:41:46.247Z,4.33
2023-01-13T15:44:34.076Z,7.10
2023-01-13T15:47:09.206Z,5.23
2023-01-13T15:49:42.762Z,4.33
2023-01-13T15:52:30.119Z,9.83
2023-01-13T15:54:59.816Z,6.23
2023-01-13T15:57:30.351Z,5.30
2023-01-13T16:00:04.209Z,4.77
2023-01-13T16:02:34.327Z,3.67
2023-01-13T16:05:01.769Z,5.47
2023-01-13T16:07:28.978Z,2.07
2023-01-13T16:09:56.252Z,7.40
2023-01-13T16:12:23.586Z,5.40
2023-01-13T16:14:51.025Z,9.83
2023-01-13T16:17:21.935Z,10.63
2023-01-13T16:19:50.093Z,4.43
2023-01-13T16:22:17.924Z,3.40
2023-01-13T16:24:45.188Z,5.00
2023-01-13T16:27:24.383Z,5.90
2023-01-13T16:29:52.815Z,4.40
2023-01-13T16:32:20.957Z,12.53
2023-01-13T16:34:48.772Z,9.20
2023-01-13T16:37:21.581Z,6.10
2023-01-13T16:39:49.106Z,2.73
2023-01-13T16:42:16.373Z,5.70
2023-01-13T16:44:44.147Z,5.90
2023-01-13T16:47:16.610Z,4.83
2023-01-13T16:49:45.002Z,5.93
2023-01-13T16:52:12.255Z,3.80
2023-01-13T16:54:39.592Z,5.50
2023-01-13T16:57:07.747Z,3.57
2023-01-13T16:59:35.125Z,5.30
2023-01-13T17:02:05.133Z,5.10
2023-01-13T17:04:32.351Z,2.77
2023-01-13T17:07:03.215Z,4.17
2023-01-13T17:09:31.320Z,3.60
2023-01-13T17:11:58.751Z,5.17
2023-01-13T17:14:26.570Z,4.40
2023-01-13T17:16:57.132Z,2.93
2023-01-13T17:19:25.847Z,3.67
2023-01-13T17:21:53.164Z,4.30
2023-01-13T17:24:21.289Z,4.57
2023-01-13T17:26:50.784Z,2.50
2023-01-13T17:29:22.046Z,3.37
2023-01-13T17:31:50.109Z,3.13
2023-01-13T17:34:18.726Z,8.30
2023-01-13T17:36:45.895Z,3.90
2023-01-13T17:39:20.236Z,1.80
2023-01-13T17:41:48.281Z,1.93
2023-01-13T17:44:20.446Z,2.10
2023-01-13T17:46:48.689Z,2.93
2023-01-13T17:49:19.017Z,3.80
2023-01-13T17:51:48.148Z,5.33
2023-01-13T17:54:15.724Z,3.53
2023-01-13T17:56:47.397Z,1.90
2023-01-13T17:59:17.891Z,2.00
2023-01-13T18:01:46.305Z,2.70
2023-01-13T18:04:15.611Z,1.83
2023-01-13T18:06:43.271Z,2.03
2023-01-13T18:09:10.823Z,4.80
2023-01-13T18:11:38.745Z,2.03
2023-01-13T18:14:06.248Z,2.40
2023-01-13T18:16:33.803Z,2.83
2023-01-13T18:19:20.191Z,5.70
2023-01-13T18:22:06.521Z,3.80
2023-01-13T18:24:52.946Z,4.87
2023-01-13T18:27:27.045Z,4.33
2023-01-13T18:29:58.691Z,4.43
2023-01-13T18:32:32.916Z,5.70
2023-01-13T18:35:06.473Z,2.97
2023-01-13T18:37:42.147Z,2.20
2023-01-13T18:40:12.247Z,2.17
2023-01-13T18:42:52.120Z,2.83
2023-01-13T18:45:31.080Z,2.47
2023-01-13T18:48:01.224Z,4.90
2023-01-13T18:50:29.678Z,1.80
2023-01-13T18:52:57.988Z,3.63
2023-01-13T18:55:27.031Z,5.00
2023-01-13T18:57:55.922Z,3.60
2023-01-13T19:00:25.281Z,5.07
2023-01-13T19:05:34.641Z,2.37
2023-01-13T19:08:02.613Z,3.30
2023-01-13T19:10:32.202Z,3.47
2023-01-13T19:13:01.329Z,5.23
2023-01-13T19:15:28.682Z,3.47
2023-01-13T19:17:55.988Z,3.30
2023-01-13T19:20:23.173Z,1.30
2023-01-13T19:22:54.329Z,3.00
2023-01-13T19:25:21.705Z,2.30
2023-01-13T19:27:48.922Z,3.10
2023-01-13T19:30:18.588Z,2.93
2023-01-13T19:32:45.869Z,5.60
2023-01-13T19:35:17.310Z,5.23
2023-01-13T19:37:44.656Z,3.93
2023-01-13T19:40:15.648Z,4.33
2023-01-13T19:43:02.550Z,2.43
2023-01-13T19:45:32.050Z,2.20
2023-01-13T19:48:05.321Z,4.13
2023-01-13T19:50:39.610Z,4.77
2023-01-13T19:53:08.187Z,3.00
2023-01-13T19:55:35.631Z,3.33
2023-01-13T19:58:03.739Z,1.13
2023-01-13T20:00:31.378Z,1.10
2023-01-13T20:03:03.254Z,3.53
2023-01-13T20:05:30.850Z,2.93
2023-01-13T20:07:58.149Z,3.53
2023-01-13T20:10:25.500Z,1.37
2023-01-13T20:12:52.775Z,0.97
2023-01-13T20:15:20.145Z,1.10
2023-01-13T20:17:47.904Z,1.20
2023-01-13T20:20:16.118Z,1.63
2023-01-13T20:22:43.955Z,4.03
2023-01-13T20:25:18.634Z,5.03
2023-01-13T20:27:47.787Z,2.90
2023-01-13T20:30:16.029Z,5.67
2023-01-13T20:32:45.161Z,3.93
2023-01-13T20:35:13.054Z,3.60
2023-01-13T20:37:42.847Z,1.10
2023-01-13T20:40:14.476Z,5.00
2023-01-13T20:42:47.483Z,2.97
2023-01-13T20:45:21.447Z,5.27
2023-01-13T20:47:49.095Z,2.27
2023-01-13T20:50:16.599Z,2.97
2023-01-13T20:52:44.300Z,1.50
2023-01-13T20:55:12.410Z,1.83
2023-01-13T20:57:41.064Z,1.50
2023-01-13T21:00:10.305Z,1.13
2023-01-13T21:02:39.682Z,2.60
2023-01-13T21:05:07.320Z,1.77
2023-01-13T21:07:34.638Z,2.73
2023-01-13T21:10:01.883Z,1.47
2023-01-13T21:12:47.733Z,0.73
2023-01-13T21:15:17.718Z,1.83
2023-01-13T21:18:05.334Z,3.50
2023-01-13T21:20:37.066Z,3.17
2023-01-13T21:23:05.737Z,7.77
2023-01-13T21:25:35.420Z,2.40
2023-01-13T21:28:06.182Z,4.60
2023-01-13T21:30:35.741Z,4.30
2023-01-13T21:33:04.212Z,2.80
2023-01-13T21:35:31.924Z,2.27
2023-01-13T21:37:59.696Z,4.30
2023-01-13T21:40:27.063Z,2.60
2023-01-13T21:43:12.956Z,13.80
2023-01-13T21:45:58.917Z,4.03
2023-01-13T21:48:26.232Z,3.17
2023-01-13T21:50:53.705Z,6.53
2023-01-13T21:53:21.036Z,3.50
2023-01-13T21:55:54.636Z,4.03
2023-01-13T21:58:23.012Z,5.60
2023-01-13T22:00:50.334Z,3.47
2023-01-13T22:03:18.693Z,2.80
2023-01-13T22:05:55.654Z,6.30
2023-01-13T22:08:22.953Z,2.87
2023-01-13T22:11:00.757Z,6.30
2023-01-13T22:13:47.877Z,2.87
2023-01-13T22:16:15.835Z,2.50
2023-01-13T22:18:43.232Z,2.80
2023-01-13T22:21:11.068Z,6.70
2023-01-13T22:23:38.401Z,1.40
2023-01-13T22:26:07.438Z,5.33
2023-01-13T22:28:40.468Z,1.87
2023-01-13T22:31:16.529Z,3.97
2023-01-13T22:33:47.852Z,7.17
2023-01-13T22:36:16.116Z,5.30
2023-01-13T22:38:43.693Z,5.10
2023-01-13T22:41:11.457Z,4.17
2023-01-13T22:43:39.223Z,2.17
2023-01-13T22:46:12.052Z,2.07
2023-01-13T22:48:40.777Z,3.70
2023-01-13T22:51:11.684Z,3.70
2023-01-13T22:53:42.131Z,5.17
2023-01-13T22:56:18.187Z,3.50
2023-01-13T22:58:45.579Z,6.90
2023-01-13T23:01:16.021Z,3.63
2023-01-13T23:03:47.523Z,2.70
2023-01-13T23:06:16.009Z,6.23
2023-01-13T23:08:43.213Z,2.90
2023-01-13T23:11:19.540Z,4.47
2023-01-13T23:13:46.833Z,5.17
2023-01-13T23:16:41.317Z,4.13
2023-01-13T23:19:10.767Z,3.80
2023-01-13T23:21:39.179Z,6.23
2023-01-13T23:24:09.083Z,2.50
2023-01-13T23:26:37.264Z,3.57
2023-01-13T23:29:08.172Z,6.63
2023-01-13T23:31:35.981Z,4.57
2023-01-13T23:34:03.405Z,4.03
2023-01-13T23:36:31.425Z,4.03
2023-01-13T23:38:59.514Z,5.80
2023-01-13T23:41:28.094Z,1.90
2023-01-13T23:43:57.946Z,6.00
2023-01-13T23:46:30.043Z,3.80
2023-01-13T23:48:57.521Z,5.33
2023-01-13T23:51:26.342Z,7.43
2023-01-13T23:53:54.296Z,4.50
2023-01-13T23:56:29.667Z,3.73
2023-01-13T23:58:57.230Z,5.90
